Time;durP1;ratioP1;P1;durP2;ratioP2;P2;SDS_P1;SDS_P2;PMS_P1;PMS_P2;Temp;Humidity;BMP_temperature;BMP_pressure;BME280_temperature;BME280_humidity;BME280_pressure;Samples;Min_cycle;Max_cycle;Signal;HPM_P1;HPM_P2
2022/03/13 00:01:27;;;;;;;16.85;9.25;;;9.50;91.00;;;;;;5016525;28;20489;-84
2022/03/13 00:03:53;;;;;;;13.50;8.68;;;9.50;90.60;;;;;;5028436;28;20057;-85
2022/03/13 00:06:32;;;;;;;12.82;8.48;;;9.40;90.70;;;;;;5018741;28;20433;-84
2022/03/13 00:08:57;;;;;;;15.07;9.10;;;9.40;91.00;;;;;;5009860;28;20967;-84
2022/03/13 00:11:23;;;;;;;17.73;9.63;;;9.40;90.80;;;;;;5034959;28;20053;-84
2022/03/13 00:13:53;;;;;;;13.82;9.00;;;9.40;91.00;;;;;;5028125;28;20417;-84
2022/03/13 00:16:21;;;;;;;13.60;8.48;;;9.30;91.00;;;;;;5015279;28;20029;-84
2022/03/13 00:18:47;;;;;;;16.15;9.75;;;9.30;91.00;;;;;;5035030;28;20041;-85
2022/03/13 00:21:20;;;;;;;11.77;7.80;;;9.30;90.90;;;;;;5030775;28;20037;-84
2022/03/13 00:23:47;;;;;;;14.10;8.73;;;9.30;91.20;;;;;;5033021;28;20482;-84
2022/03/13 00:26:13;;;;;;;15.38;8.40;;;9.30;90.80;;;;;;5028865;28;20048;-85
2022/03/13 00:28:39;;;;;;;12.20;7.88;;;9.40;90.60;;;;;;5033310;28;20116;-84
2022/03/13 00:31:06;;;;;;;14.10;8.43;;;9.40;90.40;;;;;;5011037;28;20188;-84
2022/03/13 00:33:33;;;;;;;13.48;8.75;;;9.40;90.00;;;;;;5033954;28;20252;-84
2022/03/13 00:35:59;;;;;;;14.70;9.00;;;9.40;89.20;;;;;;5031109;28;20045;-84
2022/03/13 00:38:25;;;;;;;12.77;7.65;;;9.40;88.80;;;;;;5033096;28;20063;-85
2022/03/13 00:40:55;;;;;;;14.32;8.38;;;9.50;88.60;;;;;;5027706;28;20128;-84
2022/03/13 00:43:23;;;;;;;14.57;8.90;;;9.40;88.50;;;;;;5011885;28;20064;-84
2022/03/13 00:45:49;;;;;;;13.65;8.10;;;9.40;88.40;;;;;;5031997;28;20038;-86
2022/03/13 00:48:15;;;;;;;13.45;8.40;;;9.40;88.10;;;;;;5012071;28;20347;-84
2022/03/13 00:50:42;;;;;;;14.68;8.55;;;9.40;88.60;;;;;;5024868;28;20048;-84
2022/03/13 00:53:07;;;;;;;13.65;8.10;;;9.40;88.40;;;;;;5022265;28;20469;-84
2022/03/13 00:55:33;;;;;;;12.27;8.15;;;9.40;88.30;;;;;;5029165;28;20172;-84
2022/03/13 00:57:59;;;;;;;15.00;8.45;;;9.50;87.40;;;;;;5023905;28;20051;-84
2022/03/13 01:00:25;;;;;;;15.60;8.80;;;9.50;87.00;;;;;;5030482;28;20495;-84
2022/03/13 01:02:51;;;;;;;13.52;8.63;;;9.50;86.90;;;;;;5028666;28;20189;-84
2022/03/13 01:05:25;;;;;;;11.98;8.18;;;9.50;86.90;;;;;;5027825;28;20055;-84
2022/03/13 01:07:52;;;;;;;14.05;8.13;;;9.50;86.70;;;;;;5008714;28;20157;-84
2022/03/13 01:10:17;;;;;;;13.43;8.60;;;9.50;86.50;;;;;;5013289;28;20049;-84
2022/03/13 01:12:43;;;;;;;12.65;8.60;;;9.50;86.80;;;;;;5025712;28;20033;-84
2022/03/13 01:15:10;;;;;;;13.85;8.50;;;9.40;86.60;;;;;;5013507;28;20037;-84
2022/03/13 01:17:36;;;;;;;13.27;8.20;;;9.30;87.40;;;;;;5036514;28;20164;-84
2022/03/13 01:20:04;;;;;;;14.98;8.95;;;9.30;87.70;;;;;;5033668;28;20063;-84
2022/03/13 01:22:30;;;;;;;13.43;8.82;;;9.30;88.90;;;;;;5023793;28;20072;-84
2022/03/13 01:24:56;;;;;;;13.70;8.52;;;9.20;88.50;;;;;;5025353;28;20717;-84
2022/03/13 01:27:22;;;;;;;12.20;8.48;;;9.20;89.20;;;;;;5030300;28;20140;-84
2022/03/13 01:29:48;;;;;;;14.63;8.48;;;9.20;89.90;;;;;;5029538;28;20036;-84
2022/03/13 01:32:15;;;;;;;13.95;8.32;;;9.10;90.00;;;;;;5031152;28;20038;-85
2022/03/13 01:34:46;;;;;;;15.13;8.75;;;9.10;90.10;;;;;;5026143;28;20070;-84
2022/03/13 01:37:27;;;;;;;13.93;8.60;;;9.10;90.60;;;;;;5026500;28;20041;-84
2022/03/13 01:39:52;;;;;;;12.48;9.00;;;9.00;91.10;;;;;;5023563;28;20052;-84
2022/03/13 01:42:19;;;;;;;15.02;9.07;;;8.90;91.00;;;;;;5029339;28;20386;-84
2022/03/13 01:44:45;;;;;;;13.15;9.10;;;8.90;91.20;;;;;;5023681;28;20041;-84
2022/03/13 01:47:11;;;;;;;15.20;9.55;;;8.90;91.10;;;;;;5005018;28;20046;-85
2022/03/13 01:49:37;;;;;;;16.38;8.60;;;8.90;91.60;;;;;;5030192;28;20502;-83
2022/03/13 01:52:03;;;;;;;16.35;9.35;;;8.90;91.30;;;;;;5026359;28;20059;-84
2022/03/13 01:54:32;;;;;;;14.02;9.07;;;8.90;91.30;;;;;;5007740;28;20041;-84
2022/03/13 01:57:00;;;;;;;18.75;9.68;;;8.90;91.50;;;;;;5027799;28;20036;-84
2022/03/13 01:59:28;;;;;;;15.43;9.50;;;8.90;91.20;;;;;;5030348;28;20033;-84
2022/03/13 02:01:54;;;;;;;13.23;9.02;;;8.90;91.30;;;;;;5025925;28;20104;-84
2022/03/13 02:04:28;;;;;;;13.52;8.90;;;8.80;91.30;;;;;;5043998;28;20053;-85
2022/03/13 02:06:58;;;;;;;15.13;9.38;;;8.90;91.60;;;;;;5009682;28;20040;-85
2022/03/13 02:09:25;;;;;;;14.40;8.50;;;8.90;91.60;;;;;;5025210;28;20083;-84
2022/03/13 02:11:51;;;;;;;14.65;9.20;;;8.80;91.50;;;;;;5015083;28;20034;-86
2022/03/13 02:14:20;;;;;;;14.25;9.13;;;8.80;91.60;;;;;;5010495;28;20443;-85
2022/03/13 02:16:47;;;;;;;13.90;8.70;;;8.80;91.40;;;;;;5053970;28;20813;-84
2022/03/13 02:19:14;;;;;;;20.45;9.27;;;8.80;91.60;;;;;;5020050;28;20041;-85
2022/03/13 02:21:44;;;;;;;14.25;8.93;;;8.80;91.70;;;;;;5018964;28;20051;-86
2022/03/13 02:24:17;;;;;;;15.80;9.40;;;8.80;91.90;;;;;;5046345;28;20103;-85
2022/03/13 02:26:44;;;;;;;15.93;8.63;;;8.70;92.40;;;;;;5034234;28;20051;-85
2022/03/13 02:29:13;;;;;;;14.50;8.65;;;8.80;92.00;;;;;;5012527;28;20045;-85
2022/03/13 02:31:40;;;;;;;17.10;9.05;;;8.70;92.00;;;;;;5015545;28;20136;-85
2022/03/13 02:34:11;;;;;;;13.82;8.90;;;8.70;92.20;;;;;;5030761;28;20045;-85
2022/03/13 02:36:37;;;;;;;16.42;9.00;;;8.70;92.30;;;;;;5029461;28;20077;-85
2022/03/13 02:39:04;;;;;;;14.05;8.80;;;8.70;92.30;;;;;;5013794;28;20053;-85
2022/03/13 02:41:30;;;;;;;13.38;8.30;;;8.70;92.30;;;;;;5044042;28;20037;-85
2022/03/13 02:43:57;;;;;;;13.63;8.75;;;8.70;92.50;;;;;;5048407;28;20114;-84
2022/03/13 02:46:42;;;;;;;14.02;8.55;;;8.60;92.40;;;;;;5033537;28;20090;-85
2022/03/13 02:49:07;;;;;;;14.95;8.32;;;8.60;92.40;;;;;;5030444;28;20042;-84
2022/03/13 02:51:33;;;;;;;16.38;10.23;;;8.60;92.20;;;;;;5033626;28;20092;-85
2022/03/13 02:53:59;;;;;;;14.23;9.23;;;8.60;92.30;;;;;;5028640;28;20061;-84
2022/03/13 02:56:24;;;;;;;15.63;9.93;;;8.60;92.20;;;;;;5001602;28;20037;-85
2022/03/13 02:58:50;;;;;;;15.18;9.27;;;8.60;92.40;;;;;;5033631;28;20041;-85
2022/03/13 03:01:16;;;;;;;14.57;9.13;;;8.60;92.50;;;;;;5011767;28;20493;-85
2022/03/13 03:03:41;;;;;;;13.88;9.10;;;8.60;92.50;;;;;;5008370;28;20488;-85
2022/03/13 03:06:12;;;;;;;14.18;9.35;;;8.60;92.50;;;;;;5029489;28;20053;-85
2022/03/13 03:08:38;;;;;;;14.73;9.27;;;8.60;92.70;;;;;;5023182;28;20121;-85
2022/03/13 03:11:04;;;;;;;16.13;9.13;;;8.60;92.60;;;;;;5033903;28;20049;-84
2022/03/13 03:13:29;;;;;;;14.25;9.15;;;8.60;92.50;;;;;;5008520;28;20127;-84
2022/03/13 03:15:55;;;;;;;15.32;9.63;;;8.60;92.50;;;;;;5029089;28;20101;-85
2022/03/13 03:18:21;;;;;;;14.85;9.30;;;8.60;92.40;;;;;;5021345;28;20041;-84
2022/03/13 03:20:46;;;;;;;14.38;8.70;;;8.60;92.60;;;;;;5027250;28;20038;-84
2022/03/13 03:23:12;;;;;;;17.58;8.93;;;8.60;92.50;;;;;;5021901;28;20159;-84
2022/03/13 03:25:40;;;;;;;13.35;8.77;;;8.50;92.60;;;;;;5025693;28;20045;-85
2022/03/13 03:28:06;;;;;;;14.57;8.93;;;8.50;92.90;;;;;;5032002;28;20046;-85
2022/03/13 03:30:32;;;;;;;15.18;9.13;;;8.50;93.00;;;;;;5024619;28;20041;-84
2022/03/13 03:33:03;;;;;;;13.85;7.95;;;8.50;93.00;;;;;;5027682;28;20091;-85
2022/03/13 03:35:29;;;;;;;15.23;9.27;;;8.40;93.20;;;;;;5010881;28;20060;-84
2022/03/13 03:37:55;;;;;;;15.38;9.02;;;8.40;93.30;;;;;;5031208;28;20049;-84
2022/03/13 03:40:24;;;;;;;14.98;9.10;;;8.40;93.60;;;;;;5006945;28;20033;-84
2022/03/13 03:42:50;;;;;;;14.15;8.70;;;8.30;93.50;;;;;;5026343;28;20076;-84
2022/03/13 03:45:18;;;;;;;16.25;9.20;;;8.30;93.40;;;;;;5004710;28;20038;-84
2022/03/13 03:47:45;;;;;;;13.18;8.43;;;8.20;93.50;;;;;;5015784;28;20084;-85
2022/03/13 03:50:11;;;;;;;15.27;8.60;;;8.20;93.50;;;;;;5037168;28;20108;-84
2022/03/13 03:52:37;;;;;;;13.23;9.00;;;8.20;93.90;;;;;;5032686;28;20136;-84
2022/03/13 03:55:03;;;;;;;12.85;8.43;;;8.10;94.00;;;;;;5007529;28;20063;-84
2022/03/13 03:57:29;;;;;;;13.02;8.50;;;8.10;94.20;;;;;;5030039;28;20038;-85
2022/03/13 03:59:54;;;;;;;14.15;8.85;;;8.10;94.50;;;;;;5030601;28;20045;-85
2022/03/13 04:02:21;;;;;;;20.77;9.30;;;8.10;94.60;;;;;;5033429;28;20056;-85
2022/03/13 04:04:47;;;;;;;14.43;9.50;;;8.00;94.80;;;;;;5039874;28;20049;-86
2022/03/13 04:07:13;;;;;;;12.48;8.70;;;8.00;94.50;;;;;;5034371;28;20139;-84
2022/03/13 04:09:40;;;;;;;15.55;9.57;;;8.00;94.50;;;;;;5036928;28;20036;-84
2022/03/13 04:12:08;;;;;;;15.00;9.65;;;8.00;94.50;;;;;;5009967;28;20164;-85
2022/03/13 04:14:37;;;;;;;14.30;8.50;;;7.90;94.50;;;;;;5045845;28;20045;-85
2022/03/13 04:17:05;;;;;;;14.70;9.23;;;7.90;94.40;;;;;;5029176;28;20065;-84
2022/03/13 04:19:31;;;;;;;15.63;9.50;;;7.90;94.30;;;;;;5030073;28;20163;-84
2022/03/13 04:21:57;;;;;;;14.88;9.82;;;7.90;94.40;;;;;;5031581;28;20436;-85
2022/03/13 04:24:24;;;;;;;18.58;9.60;;;7.90;94.30;;;;;;5015058;28;20060;-85
2022/03/13 04:26:50;;;;;;;14.98;9.45;;;7.80;94.50;;;;;;5010273;28;20041;-85
2022/03/13 04:29:18;;;;;;;16.17;9.70;;;7.80;94.60;;;;;;5030961;28;20086;-85
2022/03/13 04:31:44;;;;;;;17.98;10.32;;;7.80;94.60;;;;;;5033315;28;20051;-85
2022/03/13 04:34:10;;;;;;;14.63;8.93;;;7.80;94.50;;;;;;5024513;28;20040;-84
2022/03/13 04:36:37;;;;;;;14.63;8.60;;;7.80;94.40;;;;;;5016232;28;20501;-85
2022/03/13 04:39:07;;;;;;;13.80;9.18;;;7.80;94.60;;;;;;5014168;28;20049;-84
2022/03/13 04:41:33;;;;;;;15.20;9.43;;;7.80;94.50;;;;;;5048250;28;20045;-84
2022/03/13 04:43:59;;;;;;;12.23;8.57;;;7.70;94.70;;;;;;5044917;28;20536;-84
2022/03/13 04:46:25;;;;;;;16.10;9.48;;;7.70;94.50;;;;;;5032383;28;20045;-84
2022/03/13 04:48:52;;;;;;;17.67;9.52;;;7.70;94.40;;;;;;5045008;28;20484;-84
2022/03/13 04:51:18;;;;;;;13.68;8.57;;;7.70;94.00;;;;;;5018780;28;20045;-85
2022/03/13 04:53:44;;;;;;;13.45;8.68;;;7.80;93.60;;;;;;5029186;28;20024;-85
2022/03/13 04:56:10;;;;;;;16.20;8.77;;;7.80;93.40;;;;;;5046640;28;20029;-84
2022/03/13 04:58:36;;;;;;;14.38;8.50;;;7.80;92.90;;;;;;5018408;28;20037;-84
2022/03/13 05:01:02;;;;;;;16.67;9.05;;;7.80;92.40;;;;;;5043425;28;20048;-85
2022/03/13 05:03:32;;;;;;;15.00;8.57;;;7.80;92.20;;;;;;5027144;28;20058;-85
2022/03/13 05:05:58;;;;;;;14.93;8.75;;;7.80;91.80;;;;;;5007780;28;20053;-84
2022/03/13 05:08:23;;;;;;;13.98;8.57;;;7.80;91.10;;;;;;5009018;28;20474;-85
2022/03/13 05:10:50;;;;;;;15.50;8.40;;;7.90;90.30;;;;;;5008040;28;20088;-85
2022/03/13 05:13:17;;;;;;;12.20;7.95;;;7.90;90.10;;;;;;5027942;28;20516;-84
2022/03/13 05:15:48;;;;;;;14.57;8.75;;;7.90;89.90;;;;;;5018270;28;20046;-85
2022/03/13 05:18:14;;;;;;;15.23;7.80;;;7.90;89.70;;;;;;5028608;28;20116;-85
2022/03/13 05:20:41;;;;;;;12.75;8.20;;;7.90;89.30;;;;;;5027286;28;20060;-84
2022/03/13 05:23:08;;;;;;;14.07;7.78;;;7.90;88.80;;;;;;5028349;28;20046;-84
2022/03/13 05:25:35;;;;;;;14.18;8.90;;;7.90;88.20;;;;;;5006161;28;20124;-85
2022/03/13 05:28:01;;;;;;;15.45;8.48;;;7.90;86.60;;;;;;5010086;28;20042;-85
2022/03/13 05:30:28;;;;;;;15.07;9.75;;;7.90;86.20;;;;;;5023388;28;20045;-84
2022/03/13 05:32:54;;;;;;;13.93;8.25;;;7.90;85.80;;;;;;5028223;28;20056;-84
2022/03/13 05:35:20;;;;;;;15.02;8.60;;;8.00;85.80;;;;;;5030931;28;20164;-85
2022/03/13 05:37:45;;;;;;;12.63;8.15;;;8.00;85.80;;;;;;5027951;28;20202;-85
2022/03/13 05:40:15;;;;;;;12.02;7.53;;;8.00;85.20;;;;;;5010969;28;20093;-85
2022/03/13 05:42:50;;;;;;;14.07;7.90;;;8.00;84.80;;;;;;5029310;28;20049;-85
2022/03/13 05:45:20;;;;;;;11.32;7.82;;;8.00;85.40;;;;;;5009395;28;20025;-85
2022/03/13 05:47:51;;;;;;;11.93;7.47;;;7.90;85.40;;;;;;5029760;28;20033;-84
2022/03/13 05:50:18;;;;;;;11.65;7.40;;;7.90;85.50;;;;;;5026971;28;20033;-85
2022/03/13 05:52:45;;;;;;;12.27;7.07;;;7.90;85.40;;;;;;5012344;28;20068;-84
2022/03/13 05:55:12;;;;;;;12.75;7.35;;;7.90;86.10;;;;;;5010720;28;20068;-86
2022/03/13 05:57:37;;;;;;;12.07;7.57;;;7.90;85.90;;;;;;5025340;28;20458;-84
2022/03/13 06:00:05;;;;;;;15.05;8.15;;;7.90;85.40;;;;;;5011151;28;20060;-84
2022/03/13 06:02:32;;;;;;;13.45;8.15;;;7.90;84.80;;;;;;5030103;28;20061;-85
2022/03/13 06:04:58;;;;;;;14.07;7.57;;;7.90;84.30;;;;;;5013342;28;20056;-85
2022/03/13 06:07:23;;;;;;;15.32;8.00;;;7.90;83.60;;;;;;5031254;28;20044;-85
2022/03/13 06:09:51;;;;;;;13.20;7.97;;;7.90;83.50;;;;;;5012969;28;20132;-85
2022/03/13 06:12:17;;;;;;;12.80;8.30;;;7.90;82.90;;;;;;5029668;28;20033;-85
2022/03/13 06:14:43;;;;;;;14.45;8.63;;;7.80;83.20;;;;;;5046393;28;20485;-84
2022/03/13 06:17:09;;;;;;;14.13;8.13;;;7.80;83.80;;;;;;5029314;28;20041;-84
2022/03/13 06:19:39;;;;;;;13.32;7.80;;;7.80;84.10;;;;;;5035379;28;20444;-84
2022/03/13 06:22:26;;;;;;;12.43;7.47;;;7.80;85.00;;;;;;5033803;28;20374;-85
2022/03/13 06:24:52;;;;;;;12.05;7.78;;;7.70;85.60;;;;;;5007901;28;20129;-85
2022/03/13 06:27:19;;;;;;;16.83;8.70;;;7.70;86.60;;;;;;5037925;28;20045;-85
2022/03/13 06:29:47;;;;;;;11.73;7.60;;;7.70;86.60;;;;;;5018662;28;20051;-84
2022/03/13 06:32:13;;;;;;;13.73;9.02;;;7.70;87.00;;;;;;5006700;28;20041;-84
2022/03/13 06:34:39;;;;;;;12.77;8.00;;;7.60;87.50;;;;;;5026338;28;20103;-84
2022/03/13 06:37:05;;;;;;;13.30;8.32;;;7.60;87.60;;;;;;5026512;28;20048;-85
2022/03/13 06:39:31;;;;;;;13.38;8.25;;;7.60;88.20;;;;;;5027617;28;20056;-84
2022/03/13 06:41:57;;;;;;;14.10;9.05;;;7.60;88.60;;;;;;5008234;28;20042;-84
2022/03/13 06:44:23;;;;;;;14.63;8.85;;;7.60;88.40;;;;;;5013513;28;20048;-84
2022/03/13 06:46:49;;;;;;;12.15;8.43;;;7.60;89.10;;;;;;5030063;28;20045;-85
2022/03/13 06:49:14;;;;;;;14.85;8.73;;;7.60;88.50;;;;;;5009978;28;20069;-84
2022/03/13 06:51:40;;;;;;;13.23;7.88;;;7.60;88.30;;;;;;5023475;28;20029;-84
2022/03/13 06:54:07;;;;;;;13.50;8.63;;;7.60;88.60;;;;;;5028894;28;20036;-85
2022/03/13 06:56:35;;;;;;;16.80;9.23;;;7.60;88.30;;;;;;5042465;28;20501;-84
2022/03/13 06:59:03;;;;;;;13.88;8.35;;;7.70;88.10;;;;;;5047498;28;20037;-84
2022/03/13 07:01:30;;;;;;;18.23;8.98;;;7.70;87.60;;;;;;5035362;28;20049;-84
2022/03/13 07:03:55;;;;;;;15.93;8.32;;;7.70;87.10;;;;;;5030123;28;20061;-84
2022/03/13 07:06:21;;;;;;;16.83;9.10;;;7.70;87.20;;;;;;5052219;28;20073;-85
2022/03/13 07:08:46;;;;;;;13.75;8.25;;;7.70;87.20;;;;;;5028236;28;20029;-85
2022/03/13 07:11:12;;;;;;;13.88;8.15;;;7.70;87.20;;;;;;5046493;28;20033;-85
2022/03/13 07:13:44;;;;;;;14.63;8.80;;;7.70;86.90;;;;;;5014019;28;20068;-84
2022/03/13 07:16:10;;;;;;;13.27;8.57;;;7.70;86.90;;;;;;5016250;28;20044;-85
2022/03/13 07:18:36;;;;;;;12.45;7.43;;;7.70;86.80;;;;;;5038331;28;20107;-84
2022/03/13 07:21:02;;;;;;;15.13;9.23;;;7.80;87.00;;;;;;5035996;28;20059;-85
2022/03/13 07:23:28;;;;;;;11.18;7.95;;;7.80;86.40;;;;;;5032769;28;20046;-85
2022/03/13 07:25:54;;;;;;;14.45;8.32;;;7.80;85.60;;;;;;5020602;28;20128;-84
2022/03/13 07:28:20;;;;;;;13.73;8.05;;;7.90;85.40;;;;;;5016841;28;20038;-85
2022/03/13 07:30:46;;;;;;;14.80;8.40;;;7.90;85.70;;;;;;5035863;28;20460;-85
2022/03/13 07:33:11;;;;;;;14.00;8.55;;;7.90;84.80;;;;;;5032437;28;20111;-85
2022/03/13 07:35:55;;;;;;;14.10;8.90;;;7.90;84.70;;;;;;5015971;28;20029;-85
2022/03/13 07:38:21;;;;;;;17.63;8.98;;;7.90;84.00;;;;;;5051946;28;20106;-85
2022/03/13 07:40:46;;;;;;;13.23;8.23;;;7.90;83.20;;;;;;5058341;28;20040;-85
2022/03/13 07:43:12;;;;;;;15.70;8.13;;;7.90;83.40;;;;;;5056116;28;20041;-85
2022/03/13 07:45:38;;;;;;;15.13;8.63;;;8.00;83.40;;;;;;5020094;28;20600;-85
2022/03/13 07:48:03;;;;;;;14.68;9.30;;;8.00;83.50;;;;;;5019982;28;20049;-85
2022/03/13 07:50:30;;;;;;;13.93;8.40;;;8.00;84.10;;;;;;5035642;28;20032;-85
2022/03/13 07:52:59;;;;;;;13.98;8.63;;;8.00;83.70;;;;;;5023983;28;20405;-85
2022/03/13 07:55:25;;;;;;;13.13;8.23;;;8.10;83.30;;;;;;5012014;28;20119;-85
2022/03/13 07:57:57;;;;;;;13.40;7.85;;;8.10;82.80;;;;;;5034176;28;20029;-85
2022/03/13 08:00:24;;;;;;;12.23;8.18;;;8.10;81.90;;;;;;5021618;28;20090;-86
2022/03/13 08:02:51;;;;;;;13.18;8.38;;;8.10;80.90;;;;;;5035517;28;20056;-86
2022/03/13 08:05:52;;;;;;;14.77;8.05;;;8.20;80.90;;;;;;5015354;28;20067;-84
2022/03/13 08:08:18;;;;;;;14.45;8.65;;;8.20;80.30;;;;;;4967705;28;20058;-85
2022/03/13 08:10:46;;;;;;;12.73;7.75;;;8.30;80.20;;;;;;5035852;28;20821;-86
2022/03/13 08:13:12;;;;;;;12.57;7.47;;;8.30;80.00;;;;;;5033951;28;20060;-85
2022/03/13 08:15:38;;;;;;;11.80;8.30;;;8.40;79.40;;;;;;5033991;28;20472;-85
2022/03/13 08:18:04;;;;;;;12.30;8.38;;;8.40;78.70;;;;;;5034729;28;20033;-84
2022/03/13 08:20:30;;;;;;;16.10;8.23;;;8.50;77.90;;;;;;5033264;28;20048;-85
2022/03/13 08:23:05;;;;;;;19.20;8.45;;;8.60;78.00;;;;;;5017840;28;20040;-85
2022/03/13 08:25:30;;;;;;;14.45;8.60;;;8.80;77.70;;;;;;5016936;28;20119;-85
2022/03/13 08:27:56;;;;;;;13.68;8.07;;;8.90;75.60;;;;;;5005765;28;20726;-86
2022/03/13 08:30:22;;;;;;;13.90;8.43;;;9.00;74.10;;;;;;5039141;28;20075;-85
2022/03/13 08:36:27;;;;;;;12.43;7.18;;;9.20;71.60;;;;;;4930808;29;20098;-85
2022/03/13 08:38:53;;;;;;;11.93;7.60;;;9.30;69.00;;;;;;5022375;28;20531;-86
2022/03/13 08:41:19;;;;;;;13.93;8.30;;;9.40;68.70;;;;;;5016868;28;20052;-85
2022/03/13 08:43:45;;;;;;;12.77;8.25;;;9.40;67.20;;;;;;5056566;28;20032;-85
2022/03/13 08:46:12;;;;;;;12.60;7.88;;;9.50;67.20;;;;;;5022189;28;20048;-85
2022/03/13 08:48:39;;;;;;;14.02;7.88;;;9.60;66.50;;;;;;5023812;28;20115;-85
2022/03/13 08:51:05;;;;;;;11.32;7.45;;;9.70;67.00;;;;;;5021580;28;20045;-85
2022/03/13 08:53:31;;;;;;;13.57;8.05;;;9.80;66.40;;;;;;5036271;28;20076;-85
2022/03/13 08:55:56;;;;;;;14.15;7.75;;;9.90;64.50;;;;;;5023358;28;20123;-85
2022/03/13 08:58:22;;;;;;;12.75;7.90;;;10.00;64.20;;;;;;5033806;28;20056;-85
2022/03/13 09:00:51;;;;;;;12.85;7.72;;;10.10;63.40;;;;;;5024187;28;20040;-85
2022/03/13 09:03:17;;;;;;;15.30;8.18;;;10.10;63.40;;;;;;5056079;28;20094;-85
2022/03/13 09:05:43;;;;;;;12.23;7.72;;;10.20;63.60;;;;;;5035847;28;20167;-85
2022/03/13 09:08:09;;;;;;;12.25;6.90;;;10.30;62.80;;;;;;5035574;28;20048;-85
2022/03/13 09:10:34;;;;;;;13.20;8.05;;;10.40;62.80;;;;;;5052364;28;20115;-85
2022/03/13 09:13:00;;;;;;;12.77;8.13;;;10.50;61.60;;;;;;5015738;28;20044;-85
2022/03/13 09:15:26;;;;;;;12.70;7.90;;;10.60;61.70;;;;;;5032767;28;20108;-85
2022/03/13 09:17:54;;;;;;;12.57;7.63;;;10.70;60.50;;;;;;5062599;28;20132;-85
2022/03/13 09:20:23;;;;;;;13.25;7.63;;;10.80;60.30;;;;;;5036355;28;20120;-85
2022/03/13 09:22:49;;;;;;;14.65;7.88;;;10.90;59.40;;;;;;5030847;28;20464;-85
2022/03/13 09:25:15;;;;;;;13.85;8.50;;;10.90;59.20;;;;;;5031001;28;20045;-85
2022/03/13 09:27:41;;;;;;;12.18;7.65;;;11.00;58.30;;;;;;5051491;28;20043;-84
2022/03/13 09:30:08;;;;;;;15.18;9.23;;;11.10;58.30;;;;;;5054542;28;20083;-85
2022/03/13 09:32:34;;;;;;;12.88;7.75;;;11.20;58.00;;;;;;5034061;28;20166;-85
2022/03/13 09:34:59;;;;;;;13.73;8.40;;;11.30;57.70;;;;;;5034794;28;20066;-85
2022/03/13 09:37:25;;;;;;;11.05;7.28;;;11.40;57.20;;;;;;5034193;28;20040;-85
2022/03/13 09:39:51;;;;;;;12.02;7.90;;;11.60;57.50;;;;;;5035438;28;20490;-85
2022/03/13 09:42:16;;;;;;;15.18;8.57;;;11.80;56.90;;;;;;5033445;28;20359;-85
2022/03/13 09:44:42;;;;;;;13.98;8.25;;;11.90;56.50;;;;;;5026933;28;20095;-85
2022/03/13 09:47:11;;;;;;;14.63;8.32;;;12.10;56.70;;;;;;5020025;28;20040;-85
2022/03/13 09:49:37;;;;;;;13.82;8.18;;;12.20;55.90;;;;;;5033590;28;20082;-85
2022/03/13 09:52:03;;;;;;;13.88;8.75;;;12.30;55.80;;;;;;5049334;28;20080;-85
2022/03/13 09:54:29;;;;;;;12.07;7.32;;;12.40;54.50;;;;;;5034015;28;20125;-85
2022/03/13 09:56:54;;;;;;;11.98;7.90;;;12.50;54.90;;;;;;5014036;28;20536;-84
2022/03/13 09:59:20;;;;;;;13.90;8.27;;;12.60;54.70;;;;;;5029143;28;20040;-85
2022/03/13 10:01:46;;;;;;;13.90;8.48;;;12.70;55.00;;;;;;5032796;28;20048;-84
2022/03/13 10:04:12;;;;;;;11.65;8.25;;;12.90;54.10;;;;;;5018301;28;20050;-85
2022/03/13 10:07:04;;;;;;;12.90;8.25;;;12.90;54.00;;;;;;5015822;28;20041;-85
2022/03/13 10:09:31;;;;;;;12.52;7.63;;;13.00;53.20;;;;;;5017496;28;20406;-84
2022/03/13 10:12:16;;;;;;;12.55;8.23;;;13.00;53.50;;;;;;5048286;28;20351;-85
2022/03/13 10:15:05;;;;;;;14.15;8.35;;;13.10;53.90;;;;;;5038786;28;20029;-84
2022/03/13 10:17:33;;;;;;;16.35;8.20;;;13.20;53.80;;;;;;5012327;28;20045;-85
2022/03/13 10:20:14;;;;;;;14.50;8.43;;;13.20;53.60;;;;;;5030756;28;20064;-85
2022/03/13 10:22:41;;;;;;;12.90;8.52;;;13.30;52.50;;;;;;5033768;28;20041;-85
2022/03/13 10:25:07;;;;;;;12.70;8.48;;;13.40;53.20;;;;;;5011464;28;20407;-85
2022/03/13 10:27:33;;;;;;;15.73;8.80;;;13.60;53.50;;;;;;5029607;28;20069;-86
2022/03/13 10:30:06;;;;;;;12.80;8.15;;;13.70;52.70;;;;;;5029199;28;20041;-85
2022/03/13 10:32:32;;;;;;;13.35;8.80;;;13.90;52.90;;;;;;5016572;28;20040;-85
2022/03/13 10:34:58;;;;;;;11.68;7.90;;;13.90;53.00;;;;;;5027856;28;20065;-85
2022/03/13 10:37:43;;;;;;;12.38;8.38;;;14.00;53.40;;;;;;5035831;28;20457;-85
2022/03/13 10:40:23;;;;;;;12.98;8.05;;;14.00;53.30;;;;;;5017937;28;20041;-85
2022/03/13 10:42:50;;;;;;;13.98;8.48;;;14.10;53.50;;;;;;5030247;28;20041;-85
2022/03/13 10:45:36;;;;;;;11.90;8.18;;;14.10;53.50;;;;;;5012736;28;20048;-85
2022/03/13 10:48:28;;;;;;;13.60;9.20;;;14.10;53.20;;;;;;5031795;28;20497;-85
2022/03/13 10:50:56;;;;;;;12.55;8.70;;;14.00;53.10;;;;;;5045548;28;20046;-84
2022/03/13 10:53:23;;;;;;;14.20;9.35;;;14.00;53.60;;;;;;5049991;28;20518;-85
2022/03/13 10:56:12;;;;;;;12.32;8.35;;;14.00;53.70;;;;;;5032451;28;20033;-85
2022/03/13 10:58:45;;;;;;;11.40;8.10;;;14.00;53.50;;;;;;5032779;28;20087;-85
2022/03/13 11:01:23;;;;;;;14.30;8.48;;;14.00;53.60;;;;;;5034710;28;20098;-85
2022/03/13 11:03:54;;;;;;;13.73;8.55;;;14.00;53.50;;;;;;5032972;28;20480;-85
2022/03/13 11:06:22;;;;;;;15.00;9.57;;;14.00;53.00;;;;;;5031861;28;20126;-85
2022/03/13 11:08:53;;;;;;;14.07;8.77;;;14.10;53.20;;;;;;5031094;28;20045;-84
2022/03/13 11:11:20;;;;;;;14.50;8.45;;;14.20;52.50;;;;;;5045435;28;20041;-84
2022/03/13 11:13:54;;;;;;;15.25;9.30;;;14.30;52.30;;;;;;5018733;28;20571;-85
2022/03/13 11:16:23;;;;;;;15.27;8.80;;;14.40;51.80;;;;;;5034569;28;20041;-84
2022/03/13 11:18:51;;;;;;;12.65;8.18;;;14.40;52.20;;;;;;5015047;28;20033;-85
2022/03/13 11:21:18;;;;;;;13.18;9.02;;;14.50;52.10;;;;;;5034755;28;20060;-85
2022/03/13 11:23:45;;;;;;;12.68;8.55;;;14.60;51.30;;;;;;5029140;28;20108;-84
2022/03/13 11:26:14;;;;;;;12.82;8.35;;;14.70;51.20;;;;;;5015510;28;20462;-84
2022/03/13 11:28:46;;;;;;;14.43;9.00;;;14.70;50.80;;;;;;5012956;28;20421;-84
2022/03/13 11:31:34;;;;;;;14.80;9.82;;;14.70;50.50;;;;;;5033237;28;20044;-84
2022/03/13 11:34:21;;;;;;;15.88;9.15;;;14.70;51.20;;;;;;5025222;28;20064;-84
2022/03/13 11:36:51;;;;;;;16.45;9.45;;;14.80;50.20;;;;;;5024893;28;20044;-84
2022/03/13 11:39:26;;;;;;;14.68;9.27;;;15.10;51.10;;;;;;5033049;28;21661;-84
2022/03/13 11:41:51;;;;;;;14.02;9.02;;;15.30;50.60;;;;;;5050141;28;20046;-84
2022/03/13 11:44:20;;;;;;;16.48;9.73;;;15.60;50.00;;;;;;5033901;28;20469;-85
2022/03/13 11:46:47;;;;;;;13.07;8.80;;;15.80;49.00;;;;;;5025911;28;20107;-84
2022/03/13 11:49:26;;;;;;;12.70;9.05;;;15.70;48.70;;;;;;5050571;28;20889;-84
2022/03/13 11:52:17;;;;;;;12.48;8.90;;;15.70;49.20;;;;;;5038429;28;20095;-85
2022/03/13 11:57:17;;;;;;;12.57;8.65;;;15.50;50.10;;;;;;5030572;28;20036;-84
2022/03/13 11:59:43;;;;;;;14.50;8.95;;;15.50;49.80;;;;;;5025956;28;20089;-84
2022/03/13 12:02:31;;;;;;;15.27;9.48;;;15.70;50.10;;;;;;5019205;28;20473;-84
2022/03/13 12:05:25;;;;;;;12.68;8.65;;;15.90;49.70;;;;;;5016985;28;20084;-85
2022/03/13 12:08:05;;;;;;;13.07;8.77;;;16.10;48.90;;;;;;5035053;28;20563;-85
2022/03/13 12:10:34;;;;;;;13.35;8.73;;;16.30;48.50;;;;;;5048169;28;20045;-85
2022/03/13 12:13:07;;;;;;;12.55;8.88;;;16.50;48.50;;;;;;5013221;28;20048;-85
2022/03/13 12:15:33;;;;;;;;;;;16.70;48.40;;;;;;4994429;28;20072;-85
2022/03/13 12:17:58;;;;;;;13.07;8.85;;;16.90;47.10;;;;;;5035673;28;19955;-85
2022/03/13 12:20:28;;;;;;;11.63;8.20;;;17.00;47.60;;;;;;5013538;28;20055;-85
2022/03/13 12:22:56;;;;;;;13.18;8.98;;;17.10;46.80;;;;;;5030473;28;20130;-84
2022/03/13 12:25:30;;;;;;;11.57;8.43;;;17.30;46.60;;;;;;5034255;28;20048;-84
2022/03/13 12:27:56;;;;;;;11.10;7.65;;;17.70;46.40;;;;;;5031492;28;20056;-85
2022/03/13 12:30:35;;;;;;;15.93;8.30;;;18.20;45.50;;;;;;5032524;28;20040;-84
2022/03/13 12:33:04;;;;;;;12.40;7.68;;;18.50;43.70;;;;;;5032035;28;20032;-84
2022/03/13 12:35:30;;;;;;;12.13;8.88;;;18.80;43.40;;;;;;5035230;28;20037;-84
2022/03/13 12:38:00;;;;;;;12.45;8.13;;;19.00;42.20;;;;;;5014472;28;20045;-84
2022/03/13 12:40:28;;;;;;;12.10;8.35;;;19.10;41.50;;;;;;5015930;28;20048;-84
2022/03/13 12:42:55;;;;;;;13.07;7.30;;;19.40;41.90;;;;;;5048610;28;20124;-84
2022/03/13 12:45:22;;;;;;;10.68;7.35;;;19.70;40.80;;;;;;5032747;28;22219;-84
2022/03/13 12:47:55;;;;;;;11.68;7.70;;;19.90;40.90;;;;;;5022768;28;20393;-84
2022/03/13 12:50:24;;;;;;;11.65;7.68;;;20.10;40.10;;;;;;5033408;28;20032;-84
2022/03/13 12:53:01;;;;;;;10.05;7.22;;;20.10;39.90;;;;;;5002487;28;20124;-85
2022/03/13 12:55:27;;;;;;;10.23;8.15;;;20.10;39.20;;;;;;5050252;28;20045;-85